sensor_id;sensor_type;location;lat;lon;timestamp;temperature;humidity
14349;DHT22;7258;50.376;8.742;2022-07-18T00:00:09;16.80;85.90
14349;DHT22;7258;50.376;8.742;2022-07-18T00:02:13;16.70;86.10
14349;DHT22;7258;50.376;8.742;2022-07-18T00:04:16;16.70;86.10
14349;DHT22;7258;50.376;8.742;2022-07-18T00:06:19;16.60;85.90
14349;DHT22;7258;50.376;8.742;2022-07-18T00:08:22;16.60;85.90
14349;DHT22;7258;50.376;8.742;2022-07-18T00:10:25;16.60;86.20
14349;DHT22;7258;50.376;8.742;2022-07-18T00:12:31;16.60;86.30
14349;DHT22;7258;50.376;8.742;2022-07-18T00:14:35;16.60;86.20
14349;DHT22;7258;50.376;8.742;2022-07-18T00:16:38;16.60;86.10
14349;DHT22;7258;50.376;8.742;2022-07-18T00:18:41;16.60;86.20
14349;DHT22;7258;50.376;8.742;2022-07-18T00:20:43;16.60;86.10
14349;DHT22;7258;50.376;8.742;2022-07-18T00:22:46;16.60;86.10
14349;DHT22;7258;50.376;8.742;2022-07-18T00:24:49;16.60;86.00
14349;DHT22;7258;50.376;8.742;2022-07-18T00:26:52;16.60;86.00
14349;DHT22;7258;50.376;8.742;2022-07-18T00:28:56;16.60;86.10
14349;DHT22;7258;50.376;8.742;2022-07-18T00:30:59;16.50;86.20
14349;DHT22;7258;50.376;8.742;2022-07-18T00:33:02;16.50;86.10
14349;DHT22;7258;50.376;8.742;2022-07-18T00:35:06;16.50;86.50
14349;DHT22;7258;50.376;8.742;2022-07-18T00:37:10;16.50;86.60
14349;DHT22;7258;50.376;8.742;2022-07-18T00:39:12;16.50;86.20
14349;DHT22;7258;50.376;8.742;2022-07-18T00:41:16;16.50;86.30
14349;DHT22;7258;50.376;8.742;2022-07-18T00:43:19;16.50;86.30
14349;DHT22;7258;50.376;8.742;2022-07-18T00:45:25;16.40;86.40
14349;DHT22;7258;50.376;8.742;2022-07-18T00:47:28;16.40;86.50
14349;DHT22;7258;50.376;8.742;2022-07-18T00:49:31;16.40;86.80
14349;DHT22;7258;50.376;8.742;2022-07-18T00:51:34;16.30;86.70
14349;DHT22;7258;50.376;8.742;2022-07-18T00:53:39;16.40;86.80
14349;DHT22;7258;50.376;8.742;2022-07-18T00:55:44;16.30;86.70
14349;DHT22;7258;50.376;8.742;2022-07-18T00:57:48;16.30;86.70
14349;DHT22;7258;50.376;8.742;2022-07-18T00:59:52;16.30;87.00
14349;DHT22;7258;50.376;8.742;2022-07-18T01:02:13;16.20;86.70
14349;DHT22;7258;50.376;8.742;2022-07-18T01:04:18;16.20;87.30
14349;DHT22;7258;50.376;8.742;2022-07-18T01:06:21;16.20;87.40
14349;DHT22;7258;50.376;8.742;2022-07-18T01:08:24;16.10;87.10
14349;DHT22;7258;50.376;8.742;2022-07-18T01:10:27;16.10;87.30
14349;DHT22;7258;50.376;8.742;2022-07-18T01:12:31;16.10;87.30
14349;DHT22;7258;50.376;8.742;2022-07-18T01:14:34;16.10;87.50
14349;DHT22;7258;50.376;8.742;2022-07-18T01:16:38;16.10;87.70
14349;DHT22;7258;50.376;8.742;2022-07-18T01:18:45;16.10;87.60
14349;DHT22;7258;50.376;8.742;2022-07-18T01:20:49;16.10;87.50
14349;DHT22;7258;50.376;8.742;2022-07-18T01:22:52;16.00;87.50
14349;DHT22;7258;50.376;8.742;2022-07-18T01:24:55;16.00;87.90
14349;DHT22;7258;50.376;8.742;2022-07-18T01:26:58;16.00;88.20
14349;DHT22;7258;50.376;8.742;2022-07-18T01:29:01;15.90;88.20
14349;DHT22;7258;50.376;8.742;2022-07-18T01:31:05;15.90;88.50
14349;DHT22;7258;50.376;8.742;2022-07-18T01:33:08;15.90;89.20
14349;DHT22;7258;50.376;8.742;2022-07-18T01:35:12;15.80;89.10
14349;DHT22;7258;50.376;8.742;2022-07-18T01:37:17;15.70;89.20
14349;DHT22;7258;50.376;8.742;2022-07-18T01:39:20;15.70;89.20
14349;DHT22;7258;50.376;8.742;2022-07-18T01:41:23;15.60;89.70
14349;DHT22;7258;50.376;8.742;2022-07-18T01:43:26;15.60;89.90
14349;DHT22;7258;50.376;8.742;2022-07-18T01:45:29;15.50;89.80
14349;DHT22;7258;50.376;8.742;2022-07-18T01:47:32;15.50;90.00
14349;DHT22;7258;50.376;8.742;2022-07-18T01:49:35;15.50;90.10
14349;DHT22;7258;50.376;8.742;2022-07-18T01:51:38;15.40;90.20
14349;DHT22;7258;50.376;8.742;2022-07-18T01:53:47;15.40;90.30
14349;DHT22;7258;50.376;8.742;2022-07-18T01:55:55;15.40;90.20
14349;DHT22;7258;50.376;8.742;2022-07-18T01:57:58;15.50;90.20
14349;DHT22;7258;50.376;8.742;2022-07-18T02:00:02;15.50;90.10
14349;DHT22;7258;50.376;8.742;2022-07-18T02:02:05;15.50;90.00
14349;DHT22;7258;50.376;8.742;2022-07-18T02:04:08;15.50;90.00
14349;DHT22;7258;50.376;8.742;2022-07-18T02:06:11;15.40;90.00
14349;DHT22;7258;50.376;8.742;2022-07-18T02:08:14;15.40;90.10
14349;DHT22;7258;50.376;8.742;2022-07-18T02:10:20;15.40;90.10
14349;DHT22;7258;50.376;8.742;2022-07-18T02:12:24;15.40;90.20
14349;DHT22;7258;50.376;8.742;2022-07-18T02:14:27;15.30;90.30
14349;DHT22;7258;50.376;8.742;2022-07-18T02:16:30;15.30;90.30
14349;DHT22;7258;50.376;8.742;2022-07-18T02:18:34;15.20;90.40
14349;DHT22;7258;50.376;8.742;2022-07-18T02:20:43;15.20;90.50
14349;DHT22;7258;50.376;8.742;2022-07-18T02:22:46;15.10;90.50
14349;DHT22;7258;50.376;8.742;2022-07-18T02:24:49;15.10;90.50
14349;DHT22;7258;50.376;8.742;2022-07-18T02:26:54;15.10;90.60
14349;DHT22;7258;50.376;8.742;2022-07-18T02:28:57;15.10;90.60
14349;DHT22;7258;50.376;8.742;2022-07-18T02:31:00;15.00;90.70
14349;DHT22;7258;50.376;8.742;2022-07-18T02:33:02;15.00;90.70
14349;DHT22;7258;50.376;8.742;2022-07-18T02:35:07;15.00;90.80
14349;DHT22;7258;50.376;8.742;2022-07-18T02:37:10;14.90;90.80
14349;DHT22;7258;50.376;8.742;2022-07-18T02:39:13;14.90;90.90
14349;DHT22;7258;50.376;8.742;2022-07-18T02:41:16;14.80;90.90
14349;DHT22;7258;50.376;8.742;2022-07-18T02:43:20;14.80;91.10
14349;DHT22;7258;50.376;8.742;2022-07-18T02:45:23;14.70;91.20
14349;DHT22;7258;50.376;8.742;2022-07-18T02:47:26;14.70;91.30
14349;DHT22;7258;50.376;8.742;2022-07-18T02:49:29;14.70;91.30
14349;DHT22;7258;50.376;8.742;2022-07-18T02:51:34;14.70;91.30
14349;DHT22;7258;50.376;8.742;2022-07-18T02:53:37;14.70;91.40
14349;DHT22;7258;50.376;8.742;2022-07-18T02:55:40;14.70;91.30
14349;DHT22;7258;50.376;8.742;2022-07-18T02:57:43;14.70;91.30
14349;DHT22;7258;50.376;8.742;2022-07-18T02:59:47;14.70;91.30
14349;DHT22;7258;50.376;8.742;2022-07-18T03:01:50;14.70;91.40
14349;DHT22;7258;50.376;8.742;2022-07-18T03:03:53;14.60;91.40
14349;DHT22;7258;50.376;8.742;2022-07-18T03:05:56;14.60;91.50
14349;DHT22;7258;50.376;8.742;2022-07-18T03:07:59;14.60;91.50
14349;DHT22;7258;50.376;8.742;2022-07-18T03:10:03;14.50;91.60
14349;DHT22;7258;50.376;8.742;2022-07-18T03:12:06;14.50;91.80
14349;DHT22;7258;50.376;8.742;2022-07-18T03:14:09;14.40;91.90
14349;DHT22;7258;50.376;8.742;2022-07-18T03:16:13;14.30;92.00
14349;DHT22;7258;50.376;8.742;2022-07-18T03:18:16;14.30;92.20
14349;DHT22;7258;50.376;8.742;2022-07-18T03:20:20;14.30;92.30
14349;DHT22;7258;50.376;8.742;2022-07-18T03:22:23;14.20;92.40
14349;DHT22;7258;50.376;8.742;2022-07-18T03:24:25;14.20;92.50
14349;DHT22;7258;50.376;8.742;2022-07-18T03:26:28;14.10;92.50
14349;DHT22;7258;50.376;8.742;2022-07-18T03:28:32;14.10;92.60
14349;DHT22;7258;50.376;8.742;2022-07-18T03:30:35;14.10;92.70
14349;DHT22;7258;50.376;8.742;2022-07-18T03:32:39;14.10;92.80
14349;DHT22;7258;50.376;8.742;2022-07-18T03:34:42;14.00;92.80
14349;DHT22;7258;50.376;8.742;2022-07-18T03:36:45;14.00;92.90
14349;DHT22;7258;50.376;8.742;2022-07-18T03:38:48;14.00;92.90
14349;DHT22;7258;50.376;8.742;2022-07-18T03:40:51;14.00;93.00
14349;DHT22;7258;50.376;8.742;2022-07-18T03:42:54;14.00;93.00
14349;DHT22;7258;50.376;8.742;2022-07-18T03:44:57;14.00;93.00
14349;DHT22;7258;50.376;8.742;2022-07-18T03:47:00;14.00;93.00
14349;DHT22;7258;50.376;8.742;2022-07-18T03:49:04;14.10;93.00
14349;DHT22;7258;50.376;8.742;2022-07-18T03:51:07;14.10;92.90
14349;DHT22;7258;50.376;8.742;2022-07-18T03:53:10;14.10;93.00
14349;DHT22;7258;50.376;8.742;2022-07-18T03:55:13;14.10;93.00
14349;DHT22;7258;50.376;8.742;2022-07-18T03:57:16;14.10;93.00
14349;DHT22;7258;50.376;8.742;2022-07-18T03:59:19;14.10;93.10
14349;DHT22;7258;50.376;8.742;2022-07-18T04:01:22;14.10;93.10
14349;DHT22;7258;50.376;8.742;2022-07-18T04:03:25;14.00;93.10
14349;DHT22;7258;50.376;8.742;2022-07-18T04:05:29;14.00;93.20
14349;DHT22;7258;50.376;8.742;2022-07-18T04:07:32;14.00;93.30
14349;DHT22;7258;50.376;8.742;2022-07-18T04:09:35;14.10;93.30
14349;DHT22;7258;50.376;8.742;2022-07-18T04:11:38;14.10;93.20
14349;DHT22;7258;50.376;8.742;2022-07-18T04:13:41;14.10;93.20
14349;DHT22;7258;50.376;8.742;2022-07-18T04:15:44;14.10;93.30
14349;DHT22;7258;50.376;8.742;2022-07-18T04:17:48;14.10;93.30
14349;DHT22;7258;50.376;8.742;2022-07-18T04:19:51;14.10;93.20
14349;DHT22;7258;50.376;8.742;2022-07-18T04:21:55;14.20;93.20
14349;DHT22;7258;50.376;8.742;2022-07-18T04:23:58;14.20;93.10
14349;DHT22;7258;50.376;8.742;2022-07-18T04:26:01;14.30;93.20
14349;DHT22;7258;50.376;8.742;2022-07-18T04:28:06;14.30;93.10
14349;DHT22;7258;50.376;8.742;2022-07-18T04:30:09;14.30;93.10
14349;DHT22;7258;50.376;8.742;2022-07-18T04:32:13;14.30;93.20
14349;DHT22;7258;50.376;8.742;2022-07-18T04:34:16;14.30;93.20
14349;DHT22;7258;50.376;8.742;2022-07-18T04:36:18;14.30;93.30
14349;DHT22;7258;50.376;8.742;2022-07-18T04:38:23;14.40;93.30
14349;DHT22;7258;50.376;8.742;2022-07-18T04:40:26;14.40;93.30
14349;DHT22;7258;50.376;8.742;2022-07-18T04:42:29;14.40;93.30
14349;DHT22;7258;50.376;8.742;2022-07-18T04:44:32;14.40;93.40
14349;DHT22;7258;50.376;8.742;2022-07-18T04:46:36;14.50;93.40
14349;DHT22;7258;50.376;8.742;2022-07-18T04:48:39;14.50;93.40
14349;DHT22;7258;50.376;8.742;2022-07-18T04:50:42;14.50;93.30
14349;DHT22;7258;50.376;8.742;2022-07-18T04:52:46;14.60;93.30
14349;DHT22;7258;50.376;8.742;2022-07-18T04:54:50;14.70;93.20
14349;DHT22;7258;50.376;8.742;2022-07-18T04:56:53;14.70;93.20
14349;DHT22;7258;50.376;8.742;2022-07-18T04:58:56;14.80;93.10
14349;DHT22;7258;50.376;8.742;2022-07-18T05:00:59;14.90;93.00
14349;DHT22;7258;50.376;8.742;2022-07-18T05:03:02;15.00;92.90
14349;DHT22;7258;50.376;8.742;2022-07-18T05:05:06;15.10;92.80
14349;DHT22;7258;50.376;8.742;2022-07-18T05:07:09;15.20;92.70
14349;DHT22;7258;50.376;8.742;2022-07-18T05:09:12;15.30;92.40
14349;DHT22;7258;50.376;8.742;2022-07-18T05:11:16;15.40;92.10
14349;DHT22;7258;50.376;8.742;2022-07-18T05:13:19;15.50;91.90
14349;DHT22;7258;50.376;8.742;2022-07-18T05:15:23;15.50;91.60
14349;DHT22;7258;50.376;8.742;2022-07-18T05:17:26;15.60;91.70
14349;DHT22;7258;50.376;8.742;2022-07-18T05:19:29;15.70;91.50
14349;DHT22;7258;50.376;8.742;2022-07-18T05:21:32;15.80;91.20
14349;DHT22;7258;50.376;8.742;2022-07-18T05:23:35;15.90;91.10
14349;DHT22;7258;50.376;8.742;2022-07-18T05:25:38;15.90;91.00
14349;DHT22;7258;50.376;8.742;2022-07-18T05:27:43;16.00;91.00
14349;DHT22;7258;50.376;8.742;2022-07-18T05:29:46;16.00;90.80
14349;DHT22;7258;50.376;8.742;2022-07-18T05:31:49;16.10;90.60
14349;DHT22;7258;50.376;8.742;2022-07-18T05:33:52;16.20;90.60
14349;DHT22;7258;50.376;8.742;2022-07-18T05:35:55;16.20;90.60
14349;DHT22;7258;50.376;8.742;2022-07-18T05:37:58;16.30;90.60
14349;DHT22;7258;50.376;8.742;2022-07-18T05:40:01;16.40;90.50
14349;DHT22;7258;50.376;8.742;2022-07-18T05:42:04;16.50;90.50
14349;DHT22;7258;50.376;8.742;2022-07-18T05:44:08;16.60;90.30
14349;DHT22;7258;50.376;8.742;2022-07-18T05:46:11;16.70;90.20
14349;DHT22;7258;50.376;8.742;2022-07-18T05:48:19;16.70;90.20
14349;DHT22;7258;50.376;8.742;2022-07-18T05:50:23;16.90;90.20
14349;DHT22;7258;50.376;8.742;2022-07-18T05:52:26;17.00;90.00
14349;DHT22;7258;50.376;8.742;2022-07-18T05:54:29;17.10;89.90
14349;DHT22;7258;50.376;8.742;2022-07-18T05:56:32;17.10;90.00
14349;DHT22;7258;50.376;8.742;2022-07-18T05:58:35;17.20;90.00
14349;DHT22;7258;50.376;8.742;2022-07-18T06:00:39;17.30;90.00
14349;DHT22;7258;50.376;8.742;2022-07-18T06:02:42;17.40;89.90
14349;DHT22;7258;50.376;8.742;2022-07-18T06:04:45;17.50;89.90
14349;DHT22;7258;50.376;8.742;2022-07-18T06:07:08;17.60;89.70
14349;DHT22;7258;50.376;8.742;2022-07-18T06:09:11;17.90;89.20
14349;DHT22;7258;50.376;8.742;2022-07-18T06:11:15;18.00;89.00
14349;DHT22;7258;50.376;8.742;2022-07-18T06:13:17;18.10;88.70
14349;DHT22;7258;50.376;8.742;2022-07-18T06:15:21;18.30;88.70
14349;DHT22;7258;50.376;8.742;2022-07-18T06:17:26;18.50;87.60
14349;DHT22;7258;50.376;8.742;2022-07-18T06:19:30;18.60;85.70
14349;DHT22;7258;50.376;8.742;2022-07-18T06:21:33;18.80;85.50
14349;DHT22;7258;50.376;8.742;2022-07-18T06:23:37;19.00;85.00
14349;DHT22;7258;50.376;8.742;2022-07-18T06:25:41;19.20;84.60
14349;DHT22;7258;50.376;8.742;2022-07-18T06:27:44;19.40;82.90
14349;DHT22;7258;50.376;8.742;2022-07-18T06:29:46;19.40;83.00
14349;DHT22;7258;50.376;8.742;2022-07-18T06:31:50;19.50;83.00
14349;DHT22;7258;50.376;8.742;2022-07-18T06:33:54;19.60;82.60
14349;DHT22;7258;50.376;8.742;2022-07-18T06:36:04;19.80;82.20
14349;DHT22;7258;50.376;8.742;2022-07-18T06:38:07;19.90;81.10
14349;DHT22;7258;50.376;8.742;2022-07-18T06:40:10;20.00;81.50
14349;DHT22;7258;50.376;8.742;2022-07-18T06:42:13;20.10;81.80
14349;DHT22;7258;50.376;8.742;2022-07-18T06:44:16;20.10;80.20
14349;DHT22;7258;50.376;8.742;2022-07-18T06:46:20;20.20;80.70
14349;DHT22;7258;50.376;8.742;2022-07-18T06:48:23;20.20;80.30
14349;DHT22;7258;50.376;8.742;2022-07-18T06:50:28;20.40;79.90
14349;DHT22;7258;50.376;8.742;2022-07-18T06:52:31;20.50;78.80
14349;DHT22;7258;50.376;8.742;2022-07-18T06:54:33;20.70;78.90
14349;DHT22;7258;50.376;8.742;2022-07-18T06:56:37;20.80;77.90
14349;DHT22;7258;50.376;8.742;2022-07-18T06:58:40;20.80;76.70
14349;DHT22;7258;50.376;8.742;2022-07-18T07:00:43;20.90;77.10
14349;DHT22;7258;50.376;8.742;2022-07-18T07:02:48;21.00;77.20
14349;DHT22;7258;50.376;8.742;2022-07-18T07:04:51;21.10;76.80
14349;DHT22;7258;50.376;8.742;2022-07-18T07:06:56;21.20;75.60
14349;DHT22;7258;50.376;8.742;2022-07-18T07:08:59;21.30;75.70
14349;DHT22;7258;50.376;8.742;2022-07-18T07:11:02;21.40;75.60
14349;DHT22;7258;50.376;8.742;2022-07-18T07:13:05;21.60;74.70
14349;DHT22;7258;50.376;8.742;2022-07-18T07:15:09;21.80;73.10
14349;DHT22;7258;50.376;8.742;2022-07-18T07:17:12;22.00;72.30
14349;DHT22;7258;50.376;8.742;2022-07-18T07:19:15;22.20;71.90
14349;DHT22;7258;50.376;8.742;2022-07-18T07:21:19;22.30;72.00
14349;DHT22;7258;50.376;8.742;2022-07-18T07:23:23;22.50;71.10
14349;DHT22;7258;50.376;8.742;2022-07-18T07:25:26;22.60;70.50
14349;DHT22;7258;50.376;8.742;2022-07-18T07:27:29;22.70;70.10
14349;DHT22;7258;50.376;8.742;2022-07-18T07:29:32;22.70;70.20
14349;DHT22;7258;50.376;8.742;2022-07-18T07:31:35;22.90;70.10
14349;DHT22;7258;50.376;8.742;2022-07-18T07:33:39;23.00;69.40
14349;DHT22;7258;50.376;8.742;2022-07-18T07:35:42;23.10;69.30
14349;DHT22;7258;50.376;8.742;2022-07-18T07:37:46;23.20;69.10
14349;DHT22;7258;50.376;8.742;2022-07-18T07:39:51;23.30;68.90
14349;DHT22;7258;50.376;8.742;2022-07-18T07:41:54;23.50;68.60
14349;DHT22;7258;50.376;8.742;2022-07-18T07:44:04;23.60;67.70
14349;DHT22;7258;50.376;8.742;2022-07-18T07:46:07;23.70;67.40
14349;DHT22;7258;50.376;8.742;2022-07-18T07:48:12;24.00;67.20
14349;DHT22;7258;50.376;8.742;2022-07-18T07:50:15;24.20;66.70
14349;DHT22;7258;50.376;8.742;2022-07-18T07:52:18;24.50;64.80
14349;DHT22;7258;50.376;8.742;2022-07-18T07:54:22;24.70;63.20
14349;DHT22;7258;50.376;8.742;2022-07-18T07:56:26;24.90;62.60
14349;DHT22;7258;50.376;8.742;2022-07-18T07:58:29;25.00;61.70
14349;DHT22;7258;50.376;8.742;2022-07-18T08:00:32;25.10;61.00
14349;DHT22;7258;50.376;8.742;2022-07-18T08:02:35;25.10;61.00
14349;DHT22;7258;50.376;8.742;2022-07-18T08:04:38;25.10;61.20
14349;DHT22;7258;50.376;8.742;2022-07-18T08:06:41;25.10;61.60
14349;DHT22;7258;50.376;8.742;2022-07-18T08:08:44;25.10;61.00
14349;DHT22;7258;50.376;8.742;2022-07-18T08:10:47;25.00;61.30
14349;DHT22;7258;50.376;8.742;2022-07-18T08:12:51;25.00;61.30
14349;DHT22;7258;50.376;8.742;2022-07-18T08:14:54;25.10;61.80
14349;DHT22;7258;50.376;8.742;2022-07-18T08:16:57;25.20;61.70
14349;DHT22;7258;50.376;8.742;2022-07-18T08:19:00;25.50;61.50
14349;DHT22;7258;50.376;8.742;2022-07-18T08:21:03;25.50;60.50
14349;DHT22;7258;50.376;8.742;2022-07-18T08:23:08;25.70;61.40
14349;DHT22;7258;50.376;8.742;2022-07-18T08:25:12;25.90;61.10
14349;DHT22;7258;50.376;8.742;2022-07-18T08:27:15;26.10;61.00
14349;DHT22;7258;50.376;8.742;2022-07-18T08:29:19;26.20;60.70
14349;DHT22;7258;50.376;8.742;2022-07-18T08:31:42;26.40;59.50
14349;DHT22;7258;50.376;8.742;2022-07-18T08:33:45;26.50;59.10
14349;DHT22;7258;50.376;8.742;2022-07-18T08:35:49;26.70;58.80
14349;DHT22;7258;50.376;8.742;2022-07-18T08:37:52;26.80;58.40
14349;DHT22;7258;50.376;8.742;2022-07-18T08:39:55;26.90;57.70
14349;DHT22;7258;50.376;8.742;2022-07-18T08:42:00;26.80;57.60
14349;DHT22;7258;50.376;8.742;2022-07-18T08:44:05;26.90;57.60
14349;DHT22;7258;50.376;8.742;2022-07-18T08:46:13;26.90;57.20
14349;DHT22;7258;50.376;8.742;2022-07-18T08:48:17;26.90;57.80
14349;DHT22;7258;50.376;8.742;2022-07-18T08:50:22;27.00;56.30
14349;DHT22;7258;50.376;8.742;2022-07-18T08:52:28;27.00;56.60
14349;DHT22;7258;50.376;8.742;2022-07-18T08:54:51;27.10;56.30
14349;DHT22;7258;50.376;8.742;2022-07-18T08:57:00;27.30;55.70
14349;DHT22;7258;50.376;8.742;2022-07-18T08:59:03;27.40;54.90
14349;DHT22;7258;50.376;8.742;2022-07-18T09:01:06;27.60;54.90
14349;DHT22;7258;50.376;8.742;2022-07-18T09:03:12;27.70;54.80
14349;DHT22;7258;50.376;8.742;2022-07-18T09:05:19;27.80;53.80
14349;DHT22;7258;50.376;8.742;2022-07-18T09:07:34;27.90;54.10
14349;DHT22;7258;50.376;8.742;2022-07-18T09:09:38;27.90;53.70
14349;DHT22;7258;50.376;8.742;2022-07-18T09:11:49;28.00;54.30
14349;DHT22;7258;50.376;8.742;2022-07-18T09:13:54;28.10;54.50
14349;DHT22;7258;50.376;8.742;2022-07-18T09:15:59;28.30;54.40
14349;DHT22;7258;50.376;8.742;2022-07-18T09:18:02;28.50;52.90
14349;DHT22;7258;50.376;8.742;2022-07-18T09:20:26;28.60;52.90
14349;DHT22;7258;50.376;8.742;2022-07-18T09:22:30;28.70;52.50
14349;DHT22;7258;50.376;8.742;2022-07-18T09:24:52;28.80;52.60
14349;DHT22;7258;50.376;8.742;2022-07-18T09:26:57;28.70;52.40
14349;DHT22;7258;50.376;8.742;2022-07-18T09:29:01;28.70;52.10
14349;DHT22;7258;50.376;8.742;2022-07-18T09:31:25;28.60;52.10
14349;DHT22;7258;50.376;8.742;2022-07-18T09:33:28;28.60;53.00
14349;DHT22;7258;50.376;8.742;2022-07-18T09:35:34;28.70;53.60
14349;DHT22;7258;50.376;8.742;2022-07-18T09:37:37;28.80;53.50
14349;DHT22;7258;50.376;8.742;2022-07-18T09:39:41;29.10;52.70
14349;DHT22;7258;50.376;8.742;2022-07-18T09:41:44;29.30;51.70
14349;DHT22;7258;50.376;8.742;2022-07-18T09:43:47;29.60;51.50
14349;DHT22;7258;50.376;8.742;2022-07-18T09:45:52;29.70;50.20
14349;DHT22;7258;50.376;8.742;2022-07-18T09:47:56;29.80;49.80
14349;DHT22;7258;50.376;8.742;2022-07-18T09:50:02;29.80;50.00
14349;DHT22;7258;50.376;8.742;2022-07-18T09:52:08;29.90;49.50
14349;DHT22;7258;50.376;8.742;2022-07-18T09:54:12;30.00;48.30
14349;DHT22;7258;50.376;8.742;2022-07-18T09:56:24;30.10;48.50
14349;DHT22;7258;50.376;8.742;2022-07-18T09:58:29;30.10;48.70
14349;DHT22;7258;50.376;8.742;2022-07-18T10:00:34;30.20;48.00
14349;DHT22;7258;50.376;8.742;2022-07-18T10:02:37;30.00;47.70
14349;DHT22;7258;50.376;8.742;2022-07-18T10:04:40;30.10;46.90
14349;DHT22;7258;50.376;8.742;2022-07-18T10:06:44;30.20;47.90
14349;DHT22;7258;50.376;8.742;2022-07-18T10:08:48;30.40;47.90
14349;DHT22;7258;50.376;8.742;2022-07-18T10:10:52;30.50;48.00
14349;DHT22;7258;50.376;8.742;2022-07-18T10:12:59;30.60;48.20
14349;DHT22;7258;50.376;8.742;2022-07-18T10:15:02;30.70;47.80
14349;DHT22;7258;50.376;8.742;2022-07-18T10:17:06;30.90;47.90
14349;DHT22;7258;50.376;8.742;2022-07-18T10:19:09;31.10;47.30
14349;DHT22;7258;50.376;8.742;2022-07-18T10:21:13;31.30;46.80
14349;DHT22;7258;50.376;8.742;2022-07-18T10:23:19;31.40;46.20
14349;DHT22;7258;50.376;8.742;2022-07-18T10:25:24;31.40;46.40
14349;DHT22;7258;50.376;8.742;2022-07-18T10:27:27;31.30;46.30
14349;DHT22;7258;50.376;8.742;2022-07-18T10:29:31;31.20;46.00
14349;DHT22;7258;50.376;8.742;2022-07-18T10:31:35;31.10;47.60
14349;DHT22;7258;50.376;8.742;2022-07-18T10:33:40;31.10;46.80
14349;DHT22;7258;50.376;8.742;2022-07-18T10:36:12;31.20;46.60
14349;DHT22;7258;50.376;8.742;2022-07-18T10:38:20;31.30;46.60
14349;DHT22;7258;50.376;8.742;2022-07-18T10:40:27;31.40;46.10
14349;DHT22;7258;50.376;8.742;2022-07-18T10:42:30;31.40;45.90
14349;DHT22;7258;50.376;8.742;2022-07-18T10:44:34;31.40;46.00
14349;DHT22;7258;50.376;8.742;2022-07-18T10:47:03;31.40;45.90
14349;DHT22;7258;50.376;8.742;2022-07-18T10:49:06;31.50;45.30
14349;DHT22;7258;50.376;8.742;2022-07-18T10:51:10;31.50;45.50
14349;DHT22;7258;50.376;8.742;2022-07-18T10:53:13;31.60;45.20
14349;DHT22;7258;50.376;8.742;2022-07-18T10:55:32;31.70;45.00
14349;DHT22;7258;50.376;8.742;2022-07-18T10:57:38;31.80;44.50
14349;DHT22;7258;50.376;8.742;2022-07-18T11:00:03;31.90;44.70
14349;DHT22;7258;50.376;8.742;2022-07-18T11:02:09;31.90;43.90
14349;DHT22;7258;50.376;8.742;2022-07-18T11:04:22;31.90;44.40
14349;DHT22;7258;50.376;8.742;2022-07-18T11:06:53;31.90;44.30
14349;DHT22;7258;50.376;8.742;2022-07-18T11:09:29;31.90;44.20
14349;DHT22;7258;50.376;8.742;2022-07-18T11:11:34;31.80;43.80
14349;DHT22;7258;50.376;8.742;2022-07-18T11:13:38;31.80;44.60
14349;DHT22;7258;50.376;8.742;2022-07-18T11:15:54;31.90;44.80
14349;DHT22;7258;50.376;8.742;2022-07-18T11:18:02;32.00;44.00
14349;DHT22;7258;50.376;8.742;2022-07-18T11:20:37;32.10;44.30
14349;DHT22;7258;50.376;8.742;2022-07-18T11:22:41;32.30;44.30
14349;DHT22;7258;50.376;8.742;2022-07-18T11:24:50;32.40;44.10
14349;DHT22;7258;50.376;8.742;2022-07-18T11:26:54;32.40;43.90
14349;DHT22;7258;50.376;8.742;2022-07-18T11:28:59;32.50;43.80
14349;DHT22;7258;50.376;8.742;2022-07-18T11:31:05;32.60;43.90
14349;DHT22;7258;50.376;8.742;2022-07-18T11:33:22;32.70;44.20
14349;DHT22;7258;50.376;8.742;2022-07-18T11:35:25;32.80;44.00
14349;DHT22;7258;50.376;8.742;2022-07-18T11:37:28;32.80;43.80
14349;DHT22;7258;50.376;8.742;2022-07-18T11:39:32;32.80;43.90
14349;DHT22;7258;50.376;8.742;2022-07-18T11:41:37;32.70;43.30
14349;DHT22;7258;50.376;8.742;2022-07-18T11:43:44;32.70;43.30
14349;DHT22;7258;50.376;8.742;2022-07-18T11:45:48;32.80;43.80
14349;DHT22;7258;50.376;8.742;2022-07-18T11:47:52;33.00;43.80
14349;DHT22;7258;50.376;8.742;2022-07-18T11:49:55;33.20;43.30
14349;DHT22;7258;50.376;8.742;2022-07-18T11:51:59;33.20;42.90
14349;DHT22;7258;50.376;8.742;2022-07-18T11:54:02;33.30;42.90
14349;DHT22;7258;50.376;8.742;2022-07-18T11:56:06;33.20;42.40
14349;DHT22;7258;50.376;8.742;2022-07-18T11:58:10;33.20;42.50
14349;DHT22;7258;50.376;8.742;2022-07-18T12:00:17;33.30;43.20
14349;DHT22;7258;50.376;8.742;2022-07-18T12:05:01;33.20;43.20
14349;DHT22;7258;50.376;8.742;2022-07-18T12:07:18;33.20;43.20
14349;DHT22;7258;50.376;8.742;2022-07-18T12:09:26;33.30;43.20
14349;DHT22;7258;50.376;8.742;2022-07-18T12:11:31;33.50;42.90
14349;DHT22;7258;50.376;8.742;2022-07-18T12:13:48;33.50;42.30
14349;DHT22;7258;50.376;8.742;2022-07-18T12:15:52;33.60;42.40
14349;DHT22;7258;50.376;8.742;2022-07-18T12:17:55;33.60;42.10
14349;DHT22;7258;50.376;8.742;2022-07-18T12:20:19;33.60;41.50
14349;DHT22;7258;50.376;8.742;2022-07-18T12:22:22;33.60;42.00
14349;DHT22;7258;50.376;8.742;2022-07-18T12:24:30;33.50;42.10
14349;DHT22;7258;50.376;8.742;2022-07-18T12:26:34;33.40;42.20
14349;DHT22;7258;50.376;8.742;2022-07-18T12:28:48;33.50;41.50
14349;DHT22;7258;50.376;8.742;2022-07-18T12:31:35;33.40;41.80
14349;DHT22;7258;50.376;8.742;2022-07-18T12:33:38;33.40;41.80
14349;DHT22;7258;50.376;8.742;2022-07-18T12:35:42;33.30;42.30
14349;DHT22;7258;50.376;8.742;2022-07-18T12:38:05;33.40;41.70
14349;DHT22;7258;50.376;8.742;2022-07-18T12:40:11;33.50;41.50
14349;DHT22;7258;50.376;8.742;2022-07-18T12:42:34;33.50;41.50
14349;DHT22;7258;50.376;8.742;2022-07-18T12:44:37;33.40;41.90
14349;DHT22;7258;50.376;8.742;2022-07-18T12:46:48;33.50;42.00
14349;DHT22;7258;50.376;8.742;2022-07-18T12:48:51;33.40;41.70
14349;DHT22;7258;50.376;8.742;2022-07-18T12:50:58;33.60;42.00
14349;DHT22;7258;50.376;8.742;2022-07-18T12:53:03;33.70;42.60
14349;DHT22;7258;50.376;8.742;2022-07-18T12:55:07;33.80;41.30
14349;DHT22;7258;50.376;8.742;2022-07-18T12:57:10;33.80;40.80
14349;DHT22;7258;50.376;8.742;2022-07-18T12:59:13;33.90;40.50
14349;DHT22;7258;50.376;8.742;2022-07-18T13:01:16;33.90;40.80
14349;DHT22;7258;50.376;8.742;2022-07-18T13:03:20;33.90;40.70
14349;DHT22;7258;50.376;8.742;2022-07-18T13:05:23;33.90;39.90
14349;DHT22;7258;50.376;8.742;2022-07-18T13:07:27;33.80;40.20
14349;DHT22;7258;50.376;8.742;2022-07-18T13:09:30;33.70;40.30
14349;DHT22;7258;50.376;8.742;2022-07-18T13:11:34;33.70;40.80
14349;DHT22;7258;50.376;8.742;2022-07-18T13:13:37;33.80;40.80
14349;DHT22;7258;50.376;8.742;2022-07-18T13:15:41;33.90;40.30
14349;DHT22;7258;50.376;8.742;2022-07-18T13:17:44;33.90;40.80
14349;DHT22;7258;50.376;8.742;2022-07-18T13:19:48;34.00;40.70
14349;DHT22;7258;50.376;8.742;2022-07-18T13:21:51;34.10;40.40
14349;DHT22;7258;50.376;8.742;2022-07-18T13:23:54;34.10;40.20